Time;durP1;ratioP1;P1;durP2;ratioP2;P2;SDS_P1;SDS_P2;PMS_P1;PMS_P2;Temp;Humidity;BMP_temperature;BMP_pressure;BME280_temperature;BME280_humidity;BME280_pressure;Samples;Min_cycle;Max_cycle;Signal;HPM_P1;HPM_P2
2023/09/08 00:01:57;;;;;;;10.95;8.13;;;21.10;99.90;;;;;;5039671;28;20132;-89
2023/09/08 00:04:23;;;;;;;11.65;7.75;;;21.00;99.90;;;;;;5049796;28;20068;-89
2023/09/08 00:06:49;;;;;;;11.00;7.85;;;21.00;99.90;;;;;;5042995;28;20419;-91
2023/09/08 00:09:16;;;;;;;10.18;7.72;;;21.00;99.90;;;;;;5037434;28;20059;-92
2023/09/08 00:11:41;;;;;;;10.50;7.70;;;20.90;99.90;;;;;;5040195;28;20496;-95
2023/09/08 00:14:07;;;;;;;10.55;7.95;;;20.90;99.90;;;;;;5042951;28;20351;-92
2023/09/08 00:16:33;;;;;;;9.07;8.13;;;20.90;99.90;;;;;;5042186;28;20539;-94
2023/09/08 00:18:59;;;;;;;10.30;7.85;;;20.80;99.90;;;;;;5036226;28;20404;-93
2023/09/08 00:21:25;;;;;;;8.95;7.53;;;20.80;99.90;;;;;;5032747;28;20152;-93
2023/09/08 00:23:52;;;;;;;10.43;7.97;;;20.80;99.90;;;;;;5036705;28;20037;-89
2023/09/08 00:26:17;;;;;;;10.13;8.20;;;20.70;99.90;;;;;;5040049;28;20370;-89
2023/09/08 00:28:43;;;;;;;11.35;7.50;;;20.70;99.90;;;;;;5040869;28;20041;-91
2023/09/08 00:31:09;;;;;;;8.80;7.90;;;20.70;99.90;;;;;;5034791;28;20077;-90
2023/09/08 00:33:35;;;;;;;10.57;8.27;;;20.70;99.90;;;;;;5034122;28;20075;-92
2023/09/08 00:36:01;;;;;;;9.73;7.78;;;20.60;99.90;;;;;;5035508;28;20037;-89
2023/09/08 00:38:26;;;;;;;8.82;7.93;;;20.60;99.90;;;;;;5037139;28;20547;-90
2023/09/08 00:40:52;;;;;;;9.68;8.77;;;20.50;99.90;;;;;;5035191;28;20036;-91
2023/09/08 00:43:18;;;;;;;9.43;8.52;;;20.50;99.90;;;;;;5033937;28;20045;-90
2023/09/08 00:45:45;;;;;;;10.23;8.55;;;20.50;99.90;;;;;;5033448;28;20185;-89
2023/09/08 00:48:12;;;;;;;9.48;8.23;;;20.50;99.90;;;;;;5042003;28;20041;-91
2023/09/08 00:50:39;;;;;;;10.63;8.25;;;20.50;99.90;;;;;;5041211;28;20060;-89
2023/09/08 00:53:06;;;;;;;8.98;7.90;;;20.50;99.90;;;;;;5042942;28;20508;-90
2023/09/08 00:55:32;;;;;;;;;;;20.40;99.90;;;;;;5032572;28;20037;-90
2023/09/08 00:57:59;;;;;;;10.43;8.20;;;20.40;99.90;;;;;;5037274;28;20006;-91
2023/09/08 01:00:25;;;;;;;;;;;20.40;99.90;;;;;;5041346;28;20492;-89
2023/09/08 01:02:51;;;;;;;8.77;7.72;;;20.30;99.90;;;;;;5043458;28;19955;-91
2023/09/08 01:05:17;;;;;;;10.35;8.80;;;20.30;99.90;;;;;;5048231;28;20477;-93
2023/09/08 01:07:44;;;;;;;9.73;8.73;;;20.20;99.90;;;;;;5037124;28;20132;-89
2023/09/08 01:10:11;;;;;;;10.23;8.80;;;20.20;99.90;;;;;;5038469;28;20049;-91
2023/09/08 01:12:37;;;;;;;10.18;7.75;;;20.10;99.90;;;;;;5033719;28;20044;-90
2023/09/08 01:15:04;;;;;;;9.85;8.07;;;20.10;99.90;;;;;;5058997;28;20052;-90
2023/09/08 01:17:30;;;;;;;9.35;8.32;;;20.00;99.90;;;;;;5047708;28;20060;-90
2023/09/08 01:19:58;;;;;;;11.30;8.48;;;20.00;99.90;;;;;;5038961;28;20037;-88
2023/09/08 01:23:07;;;;;;;10.23;8.40;;;20.00;99.90;;;;;;5032024;28;20063;-91
2023/09/08 01:25:40;;;;;;;10.52;8.30;;;19.90;99.90;;;;;;5040062;28;20041;-90
2023/09/08 01:28:07;;;;;;;9.52;8.50;;;19.90;99.90;;;;;;5043759;28;20168;-90
2023/09/08 01:30:34;;;;;;;9.93;9.02;;;19.90;99.90;;;;;;5036655;28;20037;-88
2023/09/08 01:33:01;;;;;;;10.45;8.35;;;19.90;99.90;;;;;;5041368;28;20055;-91
2023/09/08 01:35:27;;;;;;;8.95;8.10;;;19.80;99.90;;;;;;5058853;28;20042;-88
2023/09/08 01:37:53;;;;;;;10.05;8.93;;;19.80;99.90;;;;;;5048668;28;20059;-89
2023/09/08 01:40:19;;;;;;;11.05;9.57;;;19.70;99.90;;;;;;5044559;28;20049;-87
2023/09/08 01:42:45;;;;;;;10.68;9.20;;;19.70;99.90;;;;;;5035932;28;20038;-90
2023/09/08 01:45:11;;;;;;;9.65;8.70;;;19.60;99.90;;;;;;5059815;28;20103;-87
2023/09/08 01:47:37;;;;;;;10.00;9.00;;;19.60;99.90;;;;;;5042875;28;20049;-89
2023/09/08 01:50:04;;;;;;;10.25;8.90;;;19.50;99.90;;;;;;5030785;28;20041;-88
2023/09/08 01:52:30;;;;;;;12.35;9.10;;;19.40;99.90;;;;;;5042133;28;20039;-89
2023/09/08 01:54:56;;;;;;;10.45;9.35;;;19.20;99.90;;;;;;5047181;28;20124;-90
2023/09/08 01:57:22;;;;;;;9.88;8.88;;;19.20;99.90;;;;;;5040770;28;20508;-88
2023/09/08 01:59:48;;;;;;;10.85;9.20;;;19.10;99.90;;;;;;5042938;28;20037;-89
2023/09/08 02:02:14;;;;;;;10.52;9.45;;;19.00;99.90;;;;;;5046993;28;20099;-88
2023/09/08 02:04:41;;;;;;;11.05;9.98;;;18.90;99.90;;;;;;5043072;28;20044;-88
2023/09/08 02:07:07;;;;;;;11.13;9.93;;;18.90;99.90;;;;;;5035092;28;20097;-89
2023/09/08 02:09:34;;;;;;;11.20;10.10;;;18.80;99.90;;;;;;5033385;28;20143;-87
2023/09/08 02:12:01;;;;;;;11.40;10.27;;;18.70;99.90;;;;;;5043395;28;20098;-90
2023/09/08 02:14:27;;;;;;;11.00;9.90;;;18.70;99.90;;;;;;5046527;28;20045;-88
2023/09/08 02:16:54;;;;;;;10.95;9.82;;;18.70;99.90;;;;;;5039173;28;20118;-89
2023/09/08 02:19:20;;;;;;;12.13;10.18;;;18.60;99.90;;;;;;5038665;28;20049;-88
2023/09/08 02:21:46;;;;;;;11.30;10.10;;;18.60;99.90;;;;;;5041592;28;20124;-92
2023/09/08 02:24:12;;;;;;;11.60;10.50;;;18.50;99.90;;;;;;5035878;28;20053;-89
2023/09/08 02:26:41;;;;;;;11.77;10.35;;;18.50;99.90;;;;;;5040896;28;20048;-90
2023/09/08 02:29:07;;;;;;;11.02;9.88;;;18.40;99.90;;;;;;5037479;28;20124;-93
2023/09/08 02:31:33;;;;;;;11.73;10.63;;;18.30;99.90;;;;;;5043828;28;20033;-91
2023/09/08 02:34:00;;;;;;;11.95;10.50;;;18.30;99.90;;;;;;5046665;28;20083;-93
2023/09/08 02:36:29;;;;;;;11.35;9.98;;;18.30;99.90;;;;;;5043414;28;20361;-88
2023/09/08 02:38:56;;;;;;;11.77;10.57;;;18.30;99.90;;;;;;5052054;28;20113;-88
2023/09/08 02:41:22;;;;;;;11.35;10.15;;;18.30;99.90;;;;;;5042619;28;20115;-90
2023/09/08 02:43:48;;;;;;;12.73;11.48;;;18.30;99.90;;;;;;5044532;28;20103;-88
2023/09/08 02:46:15;;;;;;;11.50;10.30;;;18.30;99.90;;;;;;5035140;28;20052;-90
2023/09/08 02:48:41;;;;;;;13.60;10.80;;;18.30;99.90;;;;;;5046379;28;20052;-87
2023/09/08 02:51:07;;;;;;;16.95;10.98;;;18.20;99.90;;;;;;5046551;28;20132;-89
2023/09/08 02:53:33;;;;;;;12.27;11.07;;;18.20;99.90;;;;;;5048794;28;20103;-85
2023/09/08 02:56:00;;;;;;;13.30;10.55;;;18.10;99.90;;;;;;5046818;28;20025;-88
2023/09/08 02:58:26;;;;;;;12.52;11.27;;;18.10;99.90;;;;;;5051037;28;20055;-92
2023/09/08 03:00:53;;;;;;;15.48;11.07;;;18.00;99.90;;;;;;5044833;28;20045;-88
2023/09/08 03:03:22;;;;;;;12.13;10.87;;;18.00;99.90;;;;;;5044365;28;20121;-87
2023/09/08 03:05:47;;;;;;;13.27;11.63;;;17.90;99.90;;;;;;5043510;28;20057;-90
2023/09/08 03:08:13;;;;;;;12.88;11.60;;;17.90;99.90;;;;;;5042190;28;20059;-88
2023/09/08 03:10:40;;;;;;;12.55;11.25;;;17.80;99.90;;;;;;5044283;28;20037;-89
2023/09/08 03:13:06;;;;;;;13.32;12.02;;;17.90;99.90;;;;;;5047861;28;20264;-90
2023/09/08 03:15:34;;;;;;;12.60;11.27;;;17.80;99.90;;;;;;5049851;28;20543;-91
2023/09/08 03:18:00;;;;;;;13.15;11.30;;;17.80;99.90;;;;;;5037789;28;20055;-91
2023/09/08 03:20:28;;;;;;;13.68;11.70;;;17.70;99.90;;;;;;5049889;28;20132;-90
2023/09/08 03:22:54;;;;;;;12.68;11.48;;;17.70;99.90;;;;;;5039057;28;20049;-88
2023/09/08 03:25:21;;;;;;;13.63;12.23;;;17.70;99.90;;;;;;5038320;28;20041;-89
2023/09/08 03:27:47;;;;;;;13.70;12.07;;;17.70;99.90;;;;;;5039669;28;20377;-88
2023/09/08 03:30:13;;;;;;;13.35;12.15;;;17.70;99.90;;;;;;5040840;28;20049;-89
2023/09/08 03:32:39;;;;;;;13.48;12.20;;;17.70;99.90;;;;;;5046374;28;20052;-90
2023/09/08 03:35:09;;;;;;;13.38;11.98;;;17.60;99.90;;;;;;5047561;28;20545;-90
2023/09/08 03:37:36;;;;;;;14.80;12.05;;;17.60;99.90;;;;;;5033597;28;20043;-91
2023/09/08 03:40:04;;;;;;;13.25;11.88;;;17.60;99.90;;;;;;5028919;28;20053;-88
2023/09/08 03:42:30;;;;;;;13.38;12.07;;;17.60;99.90;;;;;;5044409;28;20098;-88
2023/09/08 03:44:56;;;;;;;13.20;11.52;;;17.60;99.90;;;;;;5046446;28;20041;-90
2023/09/08 03:47:21;;;;;;;12.90;11.60;;;17.60;99.90;;;;;;5037187;28;20404;-92
2023/09/08 03:49:47;;;;;;;12.52;11.27;;;17.60;99.90;;;;;;5030885;28;20428;-93
2023/09/08 03:52:13;;;;;;;12.27;11.18;;;17.60;99.90;;;;;;5036351;28;20107;-91
2023/09/08 03:54:39;;;;;;;13.68;12.20;;;17.70;99.90;;;;;;5042942;28;20049;-90
2023/09/08 03:57:04;;;;;;;13.48;12.07;;;17.70;99.90;;;;;;5037490;28;20037;-91
2023/09/08 03:59:30;;;;;;;13.15;11.30;;;17.80;99.90;;;;;;5039354;28;20052;-90
2023/09/08 04:01:56;;;;;;;12.73;11.43;;;17.80;99.90;;;;;;5040398;28;20041;-92
2023/09/08 04:04:22;;;;;;;12.25;10.90;;;17.90;99.90;;;;;;5042244;28;20071;-94
2023/09/08 04:06:47;;;;;;;12.68;11.40;;;17.90;99.90;;;;;;5037106;28;20119;-96
2023/09/08 04:09:13;;;;;;;12.75;11.52;;;18.00;99.90;;;;;;5033586;28;20052;-91
2023/09/08 04:11:39;;;;;;;12.27;11.07;;;18.00;99.90;;;;;;5038561;28;20073;-91
2023/09/08 04:14:04;;;;;;;12.32;11.07;;;18.00;99.90;;;;;;5043414;28;20049;-90
2023/09/08 04:16:30;;;;;;;12.38;11.13;;;18.10;99.90;;;;;;5036522;28;20041;-93
2023/09/08 04:18:56;;;;;;;14.98;11.63;;;18.10;99.90;;;;;;5039950;28;20044;-93
2023/09/08 04:21:22;;;;;;;11.48;10.43;;;18.10;99.90;;;;;;5038267;28;20389;-93
2023/09/08 04:23:48;;;;;;;12.93;11.45;;;18.10;99.90;;;;;;5038773;28;20047;-93
2023/09/08 04:26:13;;;;;;;14.02;11.27;;;18.10;99.90;;;;;;5036487;28;20452;-92
2023/09/08 04:28:39;;;;;;;13.15;10.90;;;18.10;99.90;;;;;;5037958;28;20087;-92
2023/09/08 04:31:05;;;;;;;11.93;10.82;;;18.10;99.90;;;;;;5039281;28;20029;-93
2023/09/08 04:33:31;;;;;;;11.75;10.65;;;18.10;99.90;;;;;;5030971;28;20407;-91
2023/09/08 04:35:56;;;;;;;11.93;10.30;;;18.10;99.90;;;;;;5039098;28;20550;-92
2023/09/08 04:38:22;;;;;;;12.95;11.65;;;18.10;99.90;;;;;;5041523;28;20403;-92
2023/09/08 04:40:48;;;;;;;11.82;10.73;;;18.10;99.90;;;;;;5031932;28;20043;-93
2023/09/08 04:43:14;;;;;;;13.05;11.40;;;18.20;99.90;;;;;;5040700;28;20036;-92
2023/09/08 04:45:39;;;;;;;12.30;11.15;;;18.10;99.90;;;;;;5036641;28;20041;-92
2023/09/08 04:48:05;;;;;;;12.80;10.80;;;18.10;99.90;;;;;;5040496;28;20036;-91
2023/09/08 04:50:31;;;;;;;11.90;10.70;;;18.10;99.90;;;;;;5031774;28;20037;-90
2023/09/08 04:52:57;;;;;;;12.73;11.38;;;18.20;99.90;;;;;;5035929;28;20040;-92
2023/09/08 04:55:22;;;;;;;12.70;11.52;;;18.10;99.90;;;;;;5035514;28;20043;-92
2023/09/08 04:57:48;;;;;;;12.90;11.60;;;18.10;99.90;;;;;;5044694;28;20084;-92
2023/09/08 05:00:15;;;;;;;12.75;11.45;;;18.10;99.90;;;;;;5040415;28;20050;-91
2023/09/08 05:02:41;;;;;;;13.15;11.15;;;18.10;99.90;;;;;;5039007;28;20455;-93
2023/09/08 05:05:07;;;;;;;12.38;11.10;;;18.00;99.90;;;;;;5037915;28;20122;-95
2023/09/08 05:07:33;;;;;;;12.43;11.27;;;18.00;99.90;;;;;;5036294;28;20077;-93
2023/09/08 05:09:58;;;;;;;12.32;10.77;;;18.10;99.90;;;;;;5034686;28;20139;-92
2023/09/08 05:12:24;;;;;;;11.68;10.35;;;18.10;99.90;;;;;;5059730;28;20385;-92
2023/09/08 05:14:55;;;;;;;12.75;11.00;;;18.00;99.90;;;;;;5044035;28;20120;-90
2023/09/08 05:17:21;;;;;;;12.70;11.32;;;18.10;99.90;;;;;;5053163;28;20048;-91
2023/09/08 05:19:47;;;;;;;12.77;11.40;;;18.00;99.90;;;;;;5039275;28;20046;-93
2023/09/08 05:22:13;;;;;;;12.77;11.20;;;18.10;99.90;;;;;;5043051;28;20182;-91
2023/09/08 05:24:38;;;;;;;12.07;10.88;;;18.00;99.90;;;;;;5044389;28;20075;-92
2023/09/08 05:27:04;;;;;;;12.68;11.32;;;18.10;99.90;;;;;;5038256;28;20037;-90
2023/09/08 05:29:30;;;;;;;12.32;10.98;;;18.10;99.90;;;;;;5048759;28;20404;-84
2023/09/08 05:31:56;;;;;;;12.10;10.85;;;18.10;99.90;;;;;;5037252;28;20045;-88
2023/09/08 05:34:22;;;;;;;12.43;11.10;;;18.10;99.90;;;;;;5042881;28;20044;-88
2023/09/08 05:36:47;;;;;;;12.07;10.95;;;18.20;99.90;;;;;;5044031;28;20037;-83
2023/09/08 05:39:15;;;;;;;13.15;11.25;;;18.10;99.90;;;;;;5041580;28;20037;-87
2023/09/08 05:41:52;;;;;;;14.02;11.63;;;18.10;99.90;;;;;;5042165;28;20037;-86
2023/09/08 05:44:18;;;;;;;11.95;10.70;;;18.20;99.90;;;;;;5042370;28;20052;-87
2023/09/08 05:46:44;;;;;;;12.13;10.88;;;18.10;99.90;;;;;;5038461;28;20558;-88
2023/09/08 05:49:10;;;;;;;13.82;11.32;;;18.10;99.90;;;;;;5038296;28;20155;-83
2023/09/08 05:51:39;;;;;;;12.68;11.38;;;18.10;99.90;;;;;;5041971;28;20520;-83
2023/09/08 05:54:05;;;;;;;12.10;11.00;;;18.30;99.90;;;;;;5047882;28;20045;-85
2023/09/08 05:56:31;;;;;;;12.63;11.43;;;18.30;99.90;;;;;;5045995;28;20037;-82
2023/09/08 05:59:06;;;;;;;13.15;11.20;;;18.30;99.90;;;;;;5046633;28;20129;-83
2023/09/08 06:01:39;;;;;;;12.85;11.57;;;18.30;99.90;;;;;;5039652;28;20053;-84
2023/09/08 06:04:05;;;;;;;13.38;10.75;;;18.40;99.90;;;;;;5044056;28;20404;-82
2023/09/08 06:06:32;;;;;;;12.50;11.20;;;18.40;99.90;;;;;;5046679;28;20056;-82
2023/09/08 06:08:58;;;;;;;12.07;10.87;;;18.50;99.90;;;;;;5035669;28;20049;-82
2023/09/08 06:11:26;;;;;;;12.75;11.45;;;18.60;99.90;;;;;;5039508;28;20410;-85
2023/09/08 06:13:55;;;;;;;12.65;11.45;;;18.60;99.90;;;;;;5032144;28;20091;-82
2023/09/08 06:16:21;;;;;;;12.95;11.68;;;18.70;99.90;;;;;;5041254;28;20071;-87
2023/09/08 06:18:54;;;;;;;13.73;11.38;;;18.80;99.90;;;;;;5041531;28;20048;-84
2023/09/08 06:21:20;;;;;;;12.68;11.13;;;18.80;99.90;;;;;;5044748;28;20127;-86
2023/09/08 06:23:52;;;;;;;15.32;11.75;;;18.90;99.90;;;;;;5037186;28;20037;-82
2023/09/08 06:26:23;;;;;;;13.43;12.13;;;19.00;99.90;;;;;;5028939;28;20052;-85
2023/09/08 06:28:49;;;;;;;12.75;10.75;;;19.00;99.90;;;;;;5033404;28;20073;-83
2023/09/08 06:31:15;;;;;;;12.27;11.07;;;19.10;99.90;;;;;;5043403;28;20488;-83
2023/09/08 06:33:41;;;;;;;14.05;11.43;;;19.20;99.90;;;;;;5040714;28;20053;-83
2023/09/08 06:36:07;;;;;;;13.63;11.18;;;19.20;99.90;;;;;;5042321;28;20118;-83
2023/09/08 06:38:33;;;;;;;11.40;10.30;;;19.30;99.90;;;;;;5035731;28;20075;-83
2023/09/08 06:41:10;;;;;;;12.40;10.95;;;19.40;99.90;;;;;;5028141;28;20113;-84
2023/09/08 06:43:36;;;;;;;14.48;11.27;;;19.40;99.90;;;;;;5040014;28;20095;-82
2023/09/08 06:46:05;;;;;;;12.55;11.35;;;19.50;99.90;;;;;;5025996;28;20041;-83
2023/09/08 06:48:31;;;;;;;12.20;10.77;;;19.60;99.90;;;;;;5035412;28;20041;-86
2023/09/08 06:50:57;;;;;;;11.18;9.98;;;19.60;99.90;;;;;;5033816;28;20079;-80
2023/09/08 06:53:23;;;;;;;11.52;10.43;;;19.70;99.90;;;;;;5055436;28;20083;-80
2023/09/08 06:56:13;;;;;;;15.38;11.10;;;19.70;99.90;;;;;;5038910;28;20037;-90
2023/09/08 06:58:45;;;;;;;12.50;11.20;;;19.80;99.90;;;;;;5043301;28;20600;-89
2023/09/08 07:01:10;;;;;;;12.90;10.13;;;19.80;99.90;;;;;;5045994;28;20126;-90
2023/09/08 07:03:36;;;;;;;12.38;10.45;;;19.90;99.90;;;;;;5043906;28;20492;-87
2023/09/08 07:06:03;;;;;;;11.18;10.07;;;20.00;99.90;;;;;;5041323;28;20095;-84
2023/09/08 07:08:29;;;;;;;11.02;10.00;;;20.00;99.90;;;;;;5051000;28;20132;-89
2023/09/08 07:10:55;;;;;;;11.55;10.27;;;20.10;99.90;;;;;;5060785;28;20067;-88
2023/09/08 07:13:21;;;;;;;12.07;10.55;;;20.20;99.90;;;;;;5051210;28;20052;-90
2023/09/08 07:15:46;;;;;;;14.68;10.80;;;20.20;99.90;;;;;;5049877;28;20041;-90
2023/09/08 07:18:12;;;;;;;10.90;9.80;;;20.30;99.90;;;;;;5046129;28;20089;-84
2023/09/08 07:20:38;;;;;;;12.18;10.40;;;20.40;99.90;;;;;;5047579;28;20123;-84
2023/09/08 07:23:04;;;;;;;11.48;10.32;;;20.50;99.90;;;;;;5034931;28;20045;-81
2023/09/08 07:25:29;;;;;;;11.40;10.20;;;20.50;99.90;;;;;;5044588;28;20064;-82
2023/09/08 07:27:55;;;;;;;11.65;10.18;;;20.50;99.90;;;;;;5051156;28;20045;-83
2023/09/08 07:30:21;;;;;;;11.00;9.90;;;20.60;99.90;;;;;;5048204;28;20036;-82
2023/09/08 07:32:47;;;;;;;13.40;10.63;;;20.70;99.90;;;;;;5051210;28;20124;-85
2023/09/08 07:35:14;;;;;;;11.80;10.10;;;20.70;99.90;;;;;;5042823;28;20060;-86
2023/09/08 07:37:43;;;;;;;13.02;10.40;;;20.80;99.90;;;;;;5045569;28;20049;-91
2023/09/08 07:40:10;;;;;;;12.00;10.45;;;20.80;99.90;;;;;;5033900;28;20494;-85
2023/09/08 07:42:36;;;;;;;10.93;9.82;;;20.90;99.90;;;;;;5050294;28;20037;-85
2023/09/08 07:45:02;;;;;;;11.40;9.32;;;21.00;99.90;;;;;;5044812;28;20120;-82
2023/09/08 07:47:28;;;;;;;10.73;9.65;;;21.00;99.90;;;;;;5044663;28;20063;-80
2023/09/08 07:50:24;;;;;;;10.27;9.18;;;21.10;99.90;;;;;;5048971;28;20601;-79
2023/09/08 07:52:51;;;;;;;10.98;9.25;;;21.20;99.90;;;;;;5043354;28;20064;-84
2023/09/08 07:55:17;;;;;;;9.50;8.50;;;21.30;99.90;;;;;;5051024;28;20070;-81
2023/09/08 07:57:45;;;;;;;9.23;8.32;;;21.30;99.90;;;;;;5035767;28;20048;-84
2023/09/08 08:00:12;;;;;;;10.60;8.90;;;21.50;99.90;;;;;;5035663;28;20412;-84
2023/09/08 08:02:53;;;;;;;9.57;8.63;;;21.50;99.90;;;;;;5048067;28;20036;-87
2023/09/08 08:05:19;;;;;;;12.45;8.63;;;21.60;99.90;;;;;;5046435;28;20215;-89
2023/09/08 08:07:45;;;;;;;9.48;8.50;;;21.70;99.90;;;;;;5050337;28;20498;-90
2023/09/08 08:10:11;;;;;;;10.90;8.63;;;21.70;99.90;;;;;;5066312;28;20127;-91
2023/09/08 08:12:38;;;;;;;13.27;8.95;;;21.80;99.90;;;;;;5046680;28;20482;-92
2023/09/08 08:15:04;;;;;;;9.98;8.35;;;21.80;99.90;;;;;;5041793;28;20052;-87
2023/09/08 08:17:30;;;;;;;9.65;8.02;;;21.90;99.90;;;;;;5046284;28;20038;-85
2023/09/08 08:19:58;;;;;;;10.33;8.10;;;21.90;99.90;;;;;;5049775;28;20099;-86
2023/09/08 08:22:26;;;;;;;10.38;8.20;;;22.00;99.90;;;;;;5050764;28;20032;-86
2023/09/08 08:24:52;;;;;;;9.85;8.10;;;22.00;99.90;;;;;;5046819;28;20108;-84
2023/09/08 08:27:18;;;;;;;9.00;7.57;;;22.10;99.90;;;;;;5047969;28;20671;-87
2023/09/08 08:29:43;;;;;;;9.63;6.85;;;22.20;99.90;;;;;;5043526;28;20055;-82
2023/09/08 08:32:09;;;;;;;9.00;7.20;;;22.30;99.90;;;;;;5049509;28;20049;-82
2023/09/08 08:34:35;;;;;;;8.35;6.93;;;22.40;99.90;;;;;;5038787;28;20059;-83
2023/09/08 08:37:02;;;;;;;9.18;7.45;;;22.50;99.90;;;;;;5046956;28;20048;-84
2023/09/08 08:39:28;;;;;;;9.45;7.35;;;22.50;99.90;;;;;;5048330;28;20060;-79
2023/09/08 08:41:54;;;;;;;8.85;7.25;;;22.60;99.90;;;;;;5034586;28;20068;-84
2023/09/08 08:44:21;;;;;;;11.38;7.20;;;22.70;99.90;;;;;;5044283;28;20098;-87
2023/09/08 08:46:47;;;;;;;10.23;6.65;;;22.70;99.90;;;;;;5044466;28;20495;-87
2023/09/08 08:49:15;;;;;;;9.20;6.90;;;22.90;99.90;;;;;;5046752;28;20128;-88
2023/09/08 08:51:44;;;;;;;7.60;6.80;;;23.00;99.90;;;;;;5037920;28;20122;-86
2023/09/08 08:54:12;;;;;;;8.43;6.25;;;23.00;99.90;;;;;;5045313;28;20154;-85
2023/09/08 08:56:39;;;;;;;7.57;6.80;;;23.10;99.90;;;;;;5047534;28;20108;-83
2023/09/08 08:59:06;;;;;;;7.55;6.60;;;23.20;99.90;;;;;;5045718;28;20049;-84
2023/09/08 09:01:32;;;;;;;7.82;6.32;;;23.30;99.90;;;;;;5042363;28;20068;-83
2023/09/08 09:03:58;;;;;;;9.97;6.90;;;23.40;99.90;;;;;;5048538;28;20060;-85
2023/09/08 09:06:24;;;;;;;8.17;6.27;;;23.40;99.90;;;;;;5050646;28;20048;-84
2023/09/08 09:08:50;;;;;;;7.93;6.18;;;23.50;99.90;;;;;;5039452;28;20315;-84
2023/09/08 09:11:16;;;;;;;8.68;6.15;;;23.60;99.90;;;;;;5049916;28;20132;-80
2023/09/08 09:13:41;;;;;;;7.30;6.47;;;23.70;99.90;;;;;;5040395;28;20151;-79
2023/09/08 09:16:10;;;;;;;8.70;6.25;;;23.70;99.90;;;;;;5036825;28;20079;-82
2023/09/08 09:18:54;;;;;;;10.70;6.03;;;23.70;99.90;;;;;;5048947;28;20037;-80
2023/09/08 09:21:20;;;;;;;12.50;6.20;;;23.90;99.90;;;;;;5052437;28;20045;-81
2023/09/08 09:23:45;;;;;;;6.95;5.55;;;23.90;99.90;;;;;;5047674;28;20244;-81
2023/09/08 09:26:23;;;;;;;8.48;6.15;;;24.00;99.90;;;;;;5045473;28;20060;-83
2023/09/08 09:28:51;;;;;;;8.70;6.22;;;24.20;99.90;;;;;;5038732;28;20079;-81
2023/09/08 09:31:18;;;;;;;9.20;6.07;;;24.20;99.90;;;;;;5050746;28;20113;-83
2023/09/08 09:33:45;;;;;;;8.82;5.85;;;24.30;99.90;;;;;;5049771;28;20045;-82
2023/09/08 09:36:20;;;;;;;8.43;5.90;;;24.40;99.90;;;;;;5045456;28;20061;-82
2023/09/08 09:38:47;;;;;;;8.57;6.05;;;24.50;99.90;;;;;;5049522;28;20117;-82
2023/09/08 09:41:13;;;;;;;9.43;6.38;;;24.60;99.90;;;;;;5048267;28;20497;-82
2023/09/08 09:43:40;;;;;;;8.05;5.70;;;24.70;99.90;;;;;;5055096;28;20450;-83
2023/09/08 09:46:09;;;;;;;;;;;24.70;99.90;;;;;;5046678;28;20618;-80
2023/09/08 09:48:35;;;;;;;7.63;5.60;;;24.80;99.90;;;;;;5050200;28;20443;-79
2023/09/08 09:51:19;;;;;;;8.20;5.20;;;24.80;99.90;;;;;;5043867;28;20045;-79
2023/09/08 09:53:45;;;;;;;7.72;5.68;;;24.90;99.90;;;;;;5038409;28;20045;-83
2023/09/08 09:56:11;;;;;;;7.28;5.32;;;24.90;99.90;;;;;;5048798;28;20037;-83
2023/09/08 09:58:38;;;;;;;8.10;5.30;;;25.00;99.90;;;;;;5340494;22;20092;-72
2023/09/08 10:01:05;;;;;;;8.15;5.20;;;25.10;99.90;;;;;;5028582;28;20052;-74
2023/09/08 10:03:32;;;;;;;;;;;25.20;99.90;;;;;;5022994;28;20094;-74
2023/09/08 10:05:58;;;;;;;8.10;5.50;;;25.20;99.90;;;;;;5030632;28;19975;-74
2023/09/08 10:08:24;;;;;;;7.93;5.45;;;25.20;99.90;;;;;;5027118;28;20895;-74
2023/09/08 10:10:50;;;;;;;7.60;5.68;;;25.30;99.90;;;;;;5019489;28;20110;-76
2023/09/08 10:13:28;;;;;;;7.97;5.90;;;25.40;99.90;;;;;;5026731;28;20033;-73
2023/09/08 10:15:58;;;;;;;8.82;5.78;;;25.40;99.90;;;;;;5014317;28;20514;-71
2023/09/08 10:18:24;;;;;;;7.28;5.82;;;25.50;99.90;;;;;;5013956;28;20083;-73
2023/09/08 10:20:53;;;;;;;8.83;5.70;;;25.50;99.90;;;;;;5026242;28;20037;-75
2023/09/08 10:23:23;;;;;;;6.65;5.43;;;25.60;99.90;;;;;;5028365;28;20038;-74
2023/09/08 10:25:54;;;;;;;7.72;5.95;;;25.60;99.90;;;;;;5023315;28;20037;-75
2023/09/08 10:28:22;;;;;;;6.78;5.30;;;25.70;99.90;;;;;;5026181;28;20132;-77
2023/09/08 10:30:48;;;;;;;7.47;5.53;;;25.80;99.90;;;;;;5018768;28;20088;-74
2023/09/08 10:33:16;;;;;;;9.03;5.87;;;25.90;99.90;;;;;;5028213;28;20053;-73
2023/09/08 10:35:43;;;;;;;13.25;5.47;;;25.90;99.90;;;;;;5024057;28;20303;-74
2023/09/08 10:38:26;;;;;;;7.45;5.90;;;26.00;99.90;;;;;;5024271;28;20120;-74
2023/09/08 10:41:15;;;;;;;7.88;5.07;;;26.00;99.90;;;;;;5018447;28;20183;-77
2023/09/08 10:43:46;;;;;;;8.07;5.50;;;26.10;99.90;;;;;;5017820;28;20053;-75
2023/09/08 10:46:22;;;;;;;6.43;5.05;;;26.20;99.90;;;;;;5028112;28;20095;-72
2023/09/08 10:48:48;;;;;;;7.85;5.60;;;26.30;99.90;;;;;;5027522;28;20056;-75
2023/09/08 10:51:14;;;;;;;6.83;5.20;;;26.40;99.90;;;;;;5028432;28;20037;-75
2023/09/08 10:53:40;;;;;;;7.93;5.13;;;26.40;99.90;;;;;;5028458;28;20045;-73
2023/09/08 10:56:06;;;;;;;6.93;5.00;;;26.50;99.90;;;;;;5026353;28;20080;-73
2023/09/08 10:58:42;;;;;;;6.97;5.57;;;26.50;99.90;;;;;;5029416;28;20535;-75
2023/09/08 11:01:16;;;;;;;5.75;4.80;;;26.70;99.90;;;;;;5019975;28;20176;-75
2023/09/08 11:03:47;;;;;;;8.65;5.20;;;26.70;99.90;;;;;;5014935;28;20058;-75
2023/09/08 11:06:17;;;;;;;6.97;4.90;;;26.80;99.90;;;;;;5027038;28;20113;-75
2023/09/08 11:08:44;;;;;;;7.93;5.47;;;26.90;99.90;;;;;;5026746;28;20056;-75
2023/09/08 11:11:12;;;;;;;8.13;4.90;;;26.90;99.90;;;;;;5025828;28;20056;-74
2023/09/08 11:13:39;;;;;;;7.35;5.28;;;27.00;99.90;;;;;;5007307;28;20046;-75
2023/09/08 11:16:06;;;;;;;5.65;4.70;;;27.00;99.90;;;;;;5024698;28;20393;-75
2023/09/08 11:18:35;;;;;;;6.75;5.30;;;27.10;99.90;;;;;;5029108;28;20049;-75
2023/09/08 11:21:03;;;;;;;6.65;4.97;;;27.20;99.90;;;;;;5028933;28;20753;-75
2023/09/08 11:23:29;;;;;;;6.18;4.97;;;27.30;99.90;;;;;;5028492;28;20119;-74
2023/09/08 11:25:55;;;;;;;7.50;5.20;;;27.30;99.90;;;;;;5027195;28;20046;-75
2023/09/08 11:28:25;;;;;;;13.43;5.30;;;27.30;99.90;;;;;;5028587;28;20048;-75
2023/09/08 11:30:51;;;;;;;5.78;4.75;;;27.40;99.50;;;;;;5025820;28;20069;-74
2023/09/08 11:33:17;;;;;;;9.10;5.22;;;27.50;99.00;;;;;;5021450;28;20039;-74
2023/09/08 11:35:46;;;;;;;7.13;5.13;;;27.60;99.10;;;;;;5021400;28;20056;-75
2023/09/08 11:38:12;;;;;;;7.00;4.93;;;27.60;98.90;;;;;;5023788;28;20806;-74
2023/09/08 11:40:38;;;;;;;7.00;4.83;;;27.60;98.90;;;;;;5026357;28;20129;-75
2023/09/08 11:43:05;;;;;;;9.02;5.00;;;27.70;99.10;;;;;;5017758;28;20048;-74
2023/09/08 11:45:34;;;;;;;7.45;5.13;;;27.70;99.20;;;;;;5020079;28;20526;-74
2023/09/08 11:48:00;;;;;;;7.60;5.13;;;27.80;98.60;;;;;;5021296;28;20577;-74
2023/09/08 11:50:26;;;;;;;6.50;5.10;;;27.90;98.80;;;;;;5017542;28;20048;-77
2023/09/08 11:52:53;;;;;;;7.37;5.13;;;27.90;98.90;;;;;;5021137;28;20081;-74
2023/09/08 11:55:21;;;;;;;5.68;4.72;;;27.90;98.90;;;;;;5026878;28;20124;-75
2023/09/08 11:57:57;;;;;;;7.32;5.13;;;28.00;98.20;;;;;;5019842;28;20049;-74
2023/09/08 12:00:24;;;;;;;8.02;5.03;;;28.00;98.20;;;;;;5019873;28;20060;-74
2023/09/08 12:02:50;;;;;;;7.75;5.00;;;28.10;98.20;;;;;;5022317;28;20041;-75
2023/09/08 12:05:24;;;;;;;10.50;5.17;;;28.20;97.60;;;;;;5025327;28;20104;-75
2023/09/08 12:07:51;;;;;;;6.93;4.65;;;28.30;97.40;;;;;;5023831;28;20045;-75
2023/09/08 12:10:18;;;;;;;8.65;5.13;;;28.30;97.30;;;;;;5023935;28;20361;-75
2023/09/08 12:12:55;;;;;;;6.60;5.15;;;28.40;97.70;;;;;;5023750;28;20438;-76
2023/09/08 12:15:37;;;;;;;7.60;5.35;;;28.40;98.20;;;;;;5024570;28;20057;-76
2023/09/08 12:18:17;;;;;;;7.68;5.47;;;28.40;97.70;;;;;;5022680;28;20120;-75
2023/09/08 12:20:43;;;;;;;7.43;5.43;;;28.50;97.60;;;;;;5023843;28;20060;-80
2023/09/08 12:23:18;;;;;;;8.20;5.30;;;28.50;96.80;;;;;;5019483;28;20399;-73
2023/09/08 12:25:47;;;;;;;9.60;5.05;;;28.50;96.70;;;;;;5022946;28;20459;-74
2023/09/08 12:28:13;;;;;;;7.30;5.70;;;28.60;97.20;;;;;;5012629;28;20046;-75
2023/09/08 12:30:39;;;;;;;10.13;5.10;;;28.60;97.30;;;;;;5024876;28;20040;-76
2023/09/08 12:33:05;;;;;;;7.13;5.37;;;28.60;97.40;;;;;;5023433;28;20084;-75
2023/09/08 12:35:31;;;;;;;7.15;4.90;;;28.70;97.60;;;;;;5025557;28;20045;-74
2023/09/08 12:38:05;;;;;;;6.10;4.97;;;28.70;96.90;;;;;;5022195;28;20057;-75
2023/09/08 12:40:34;;;;;;;7.82;5.20;;;28.80;96.40;;;;;;5024051;28;20107;-75